sensor_id;sensor_type;location;lat;lon;timestamp;P1;durP1;ratioP1;P2;durP2;ratioP2
12224;SDS011;6175;50.956;11.064;2022-08-25T00:01:48;4.85;;;4.45;;
12224;SDS011;6175;50.956;11.064;2022-08-25T00:04:17;5.68;;;5.18;;
12224;SDS011;6175;50.956;11.064;2022-08-25T00:06:45;5.22;;;4.82;;
12224;SDS011;6175;50.956;11.064;2022-08-25T00:09:14;4.82;;;4.43;;
12224;SDS011;6175;50.956;11.064;2022-08-25T00:11:43;4.93;;;4.53;;
12224;SDS011;6175;50.956;11.064;2022-08-25T00:14:14;5.57;;;5.07;;
12224;SDS011;6175;50.956;11.064;2022-08-25T00:16:44;5.22;;;4.72;;
12224;SDS011;6175;50.956;11.064;2022-08-25T00:19:12;4.63;;;4.32;;
12224;SDS011;6175;50.956;11.064;2022-08-25T00:21:40;4.95;;;4.55;;
12224;SDS011;6175;50.956;11.064;2022-08-25T00:24:08;5.13;;;4.68;;
12224;SDS011;6175;50.956;11.064;2022-08-25T00:26:37;4.95;;;4.55;;
12224;SDS011;6175;50.956;11.064;2022-08-25T00:29:04;5.20;;;4.70;;
12224;SDS011;6175;50.956;11.064;2022-08-25T00:31:32;4.75;;;4.35;;
12224;SDS011;6175;50.956;11.064;2022-08-25T00:34:00;5.50;;;5.05;;
12224;SDS011;6175;50.956;11.064;2022-08-25T00:36:28;5.30;;;4.88;;
12224;SDS011;6175;50.956;11.064;2022-08-25T00:38:54;5.63;;;5.10;;
12224;SDS011;6175;50.956;11.064;2022-08-25T00:41:23;5.38;;;4.88;;
12224;SDS011;6175;50.956;11.064;2022-08-25T00:43:52;6.22;;;5.25;;
12224;SDS011;6175;50.956;11.064;2022-08-25T00:46:22;4.85;;;4.40;;
12224;SDS011;6175;50.956;11.064;2022-08-25T00:48:51;5.25;;;4.85;;
12224;SDS011;6175;50.956;11.064;2022-08-25T00:51:26;5.13;;;4.72;;
12224;SDS011;6175;50.956;11.064;2022-08-25T00:53:57;4.60;;;4.25;;
12224;SDS011;6175;50.956;11.064;2022-08-25T00:56:24;4.80;;;4.40;;
12224;SDS011;6175;50.956;11.064;2022-08-25T00:58:53;5.13;;;4.72;;
12224;SDS011;6175;50.956;11.064;2022-08-25T01:01:20;5.03;;;4.63;;
12224;SDS011;6175;50.956;11.064;2022-08-25T01:03:47;5.15;;;4.75;;
12224;SDS011;6175;50.956;11.064;2022-08-25T01:06:14;5.00;;;4.60;;
12224;SDS011;6175;50.956;11.064;2022-08-25T01:08:42;4.70;;;4.30;;
12224;SDS011;6175;50.956;11.064;2022-08-25T01:11:09;4.68;;;4.28;;
12224;SDS011;6175;50.956;11.064;2022-08-25T01:13:38;5.20;;;4.80;;
12224;SDS011;6175;50.956;11.064;2022-08-25T01:16:08;5.63;;;5.10;;
12224;SDS011;6175;50.956;11.064;2022-08-25T01:18:44;5.95;;;5.45;;
12224;SDS011;6175;50.956;11.064;2022-08-25T01:21:16;6.25;;;5.65;;
12224;SDS011;6175;50.956;11.064;2022-08-25T01:23:44;5.28;;;4.88;;
12224;SDS011;6175;50.956;11.064;2022-08-25T01:26:13;5.57;;;5.07;;
12224;SDS011;6175;50.956;11.064;2022-08-25T01:28:42;5.50;;;5.10;;
12224;SDS011;6175;50.956;11.064;2022-08-25T01:31:29;5.55;;;5.05;;
12224;SDS011;6175;50.956;11.064;2022-08-25T01:33:57;5.25;;;4.85;;
12224;SDS011;6175;50.956;11.064;2022-08-25T01:36:26;5.80;;;5.35;;
12224;SDS011;6175;50.956;11.064;2022-08-25T01:38:53;5.97;;;5.47;;
12224;SDS011;6175;50.956;11.064;2022-08-25T01:41:25;6.20;;;5.70;;
12224;SDS011;6175;50.956;11.064;2022-08-25T01:44:00;5.80;;;5.30;;
12224;SDS011;6175;50.956;11.064;2022-08-25T01:46:30;5.53;;;5.13;;
12224;SDS011;6175;50.956;11.064;2022-08-25T01:48:57;5.47;;;5.05;;
12224;SDS011;6175;50.956;11.064;2022-08-25T01:51:27;5.60;;;5.03;;
12224;SDS011;6175;50.956;11.064;2022-08-25T01:53:55;5.55;;;5.15;;
12224;SDS011;6175;50.956;11.064;2022-08-25T01:56:22;5.63;;;5.13;;
12224;SDS011;6175;50.956;11.064;2022-08-25T01:58:48;6.22;;;5.72;;
12224;SDS011;6175;50.956;11.064;2022-08-25T02:01:16;5.93;;;5.43;;
12224;SDS011;6175;50.956;11.064;2022-08-25T02:03:45;5.30;;;4.90;;
12224;SDS011;6175;50.956;11.064;2022-08-25T02:06:14;5.63;;;5.13;;
12224;SDS011;6175;50.956;11.064;2022-08-25T02:08:44;6.03;;;5.53;;
12224;SDS011;6175;50.956;11.064;2022-08-25T02:11:12;5.70;;;5.20;;
12224;SDS011;6175;50.956;11.064;2022-08-25T02:13:40;5.30;;;4.80;;
12224;SDS011;6175;50.956;11.064;2022-08-25T02:16:07;6.03;;;5.43;;
12224;SDS011;6175;50.956;11.064;2022-08-25T02:18:39;7.88;;;6.18;;
12224;SDS011;6175;50.956;11.064;2022-08-25T02:21:06;6.90;;;5.95;;
12224;SDS011;6175;50.956;11.064;2022-08-25T02:23:35;7.05;;;6.45;;
12224;SDS011;6175;50.956;11.064;2022-08-25T02:26:03;6.65;;;6.05;;
12224;SDS011;6175;50.956;11.064;2022-08-25T02:28:30;5.93;;;5.43;;
12224;SDS011;6175;50.956;11.064;2022-08-25T02:30:57;6.53;;;5.82;;
12224;SDS011;6175;50.956;11.064;2022-08-25T02:33:24;5.70;;;5.20;;
12224;SDS011;6175;50.956;11.064;2022-08-25T02:35:51;5.75;;;5.25;;
12224;SDS011;6175;50.956;11.064;2022-08-25T02:38:18;6.03;;;5.53;;
12224;SDS011;6175;50.956;11.064;2022-08-25T02:40:45;7.25;;;6.03;;
12224;SDS011;6175;50.956;11.064;2022-08-25T02:43:13;5.63;;;5.13;;
12224;SDS011;6175;50.956;11.064;2022-08-25T02:45:40;5.85;;;5.25;;
12224;SDS011;6175;50.956;11.064;2022-08-25T02:48:07;6.07;;;5.57;;
12224;SDS011;6175;50.956;11.064;2022-08-25T02:50:35;6.03;;;5.53;;
12224;SDS011;6175;50.956;11.064;2022-08-25T02:53:02;6.00;;;5.50;;
12224;SDS011;6175;50.956;11.064;2022-08-25T02:55:29;6.78;;;6.10;;
12224;SDS011;6175;50.956;11.064;2022-08-25T02:57:55;7.28;;;6.53;;
12224;SDS011;6175;50.956;11.064;2022-08-25T03:00:24;6.70;;;6.10;;
12224;SDS011;6175;50.956;11.064;2022-08-25T03:02:50;7.38;;;6.68;;
12224;SDS011;6175;50.956;11.064;2022-08-25T03:05:17;6.57;;;6.07;;
12224;SDS011;6175;50.956;11.064;2022-08-25T03:07:44;6.60;;;6.00;;
12224;SDS011;6175;50.956;11.064;2022-08-25T03:10:12;6.60;;;6.00;;
12224;SDS011;6175;50.956;11.064;2022-08-25T03:12:42;6.75;;;6.15;;
12224;SDS011;6175;50.956;11.064;2022-08-25T03:15:09;6.45;;;5.78;;
12224;SDS011;6175;50.956;11.064;2022-08-25T03:17:41;6.50;;;6.00;;
12224;SDS011;6175;50.956;11.064;2022-08-25T03:20:09;6.70;;;6.10;;
12224;SDS011;6175;50.956;11.064;2022-08-25T03:22:37;6.70;;;6.10;;
12224;SDS011;6175;50.956;11.064;2022-08-25T03:25:04;6.65;;;6.05;;
12224;SDS011;6175;50.956;11.064;2022-08-25T03:27:49;6.60;;;6.00;;
12224;SDS011;6175;50.956;11.064;2022-08-25T03:30:16;6.75;;;6.25;;
12224;SDS011;6175;50.956;11.064;2022-08-25T03:32:45;6.82;;;6.22;;
12224;SDS011;6175;50.956;11.064;2022-08-25T03:35:13;7.43;;;6.70;;
12224;SDS011;6175;50.956;11.064;2022-08-25T03:37:40;7.65;;;6.95;;
12224;SDS011;6175;50.956;11.064;2022-08-25T03:40:08;7.22;;;6.63;;
12224;SDS011;6175;50.956;11.064;2022-08-25T03:42:39;7.82;;;7.00;;
12224;SDS011;6175;50.956;11.064;2022-08-25T03:45:07;7.43;;;6.70;;
12224;SDS011;6175;50.956;11.064;2022-08-25T03:47:35;7.15;;;6.55;;
12224;SDS011;6175;50.956;11.064;2022-08-25T03:50:05;6.90;;;6.25;;
12224;SDS011;6175;50.956;11.064;2022-08-25T03:52:34;6.40;;;5.85;;
12224;SDS011;6175;50.956;11.064;2022-08-25T03:55:02;6.78;;;6.20;;
12224;SDS011;6175;50.956;11.064;2022-08-25T03:57:30;6.43;;;5.82;;
12224;SDS011;6175;50.956;11.064;2022-08-25T03:59:57;7.15;;;6.55;;
12224;SDS011;6175;50.956;11.064;2022-08-25T04:02:23;6.97;;;6.32;;
12224;SDS011;6175;50.956;11.064;2022-08-25T04:04:50;6.50;;;5.90;;
12224;SDS011;6175;50.956;11.064;2022-08-25T04:07:19;6.85;;;6.35;;
12224;SDS011;6175;50.956;11.064;2022-08-25T04:09:45;6.78;;;6.18;;
12224;SDS011;6175;50.956;11.064;2022-08-25T04:12:13;7.00;;;6.30;;
12224;SDS011;6175;50.956;11.064;2022-08-25T04:14:39;7.68;;;6.95;;
12224;SDS011;6175;50.956;11.064;2022-08-25T04:17:07;7.65;;;6.63;;
12224;SDS011;6175;50.956;11.064;2022-08-25T04:19:34;7.18;;;6.57;;
12224;SDS011;6175;50.956;11.064;2022-08-25T04:22:02;6.40;;;5.90;;
12224;SDS011;6175;50.956;11.064;2022-08-25T04:24:30;7.95;;;7.15;;
12224;SDS011;6175;50.956;11.064;2022-08-25T04:26:57;7.20;;;6.50;;
12224;SDS011;6175;50.956;11.064;2022-08-25T04:29:25;6.78;;;6.18;;
12224;SDS011;6175;50.956;11.064;2022-08-25T04:31:52;6.75;;;6.18;;
12224;SDS011;6175;50.956;11.064;2022-08-25T04:34:21;7.38;;;6.68;;
12224;SDS011;6175;50.956;11.064;2022-08-25T04:36:49;7.63;;;6.85;;
12224;SDS011;6175;50.956;11.064;2022-08-25T04:39:17;7.15;;;6.55;;
12224;SDS011;6175;50.956;11.064;2022-08-25T04:41:47;7.97;;;7.18;;
12224;SDS011;6175;50.956;11.064;2022-08-25T04:44:15;7.07;;;6.38;;
12224;SDS011;6175;50.956;11.064;2022-08-25T04:46:43;6.70;;;6.10;;
12224;SDS011;6175;50.956;11.064;2022-08-25T04:49:10;6.70;;;6.10;;
12224;SDS011;6175;50.956;11.064;2022-08-25T04:51:38;7.78;;;6.97;;
12224;SDS011;6175;50.956;11.064;2022-08-25T04:54:07;8.00;;;6.85;;
12224;SDS011;6175;50.956;11.064;2022-08-25T04:56:35;9.27;;;7.95;;
12224;SDS011;6175;50.956;11.064;2022-08-25T04:59:07;8.18;;;7.35;;
12224;SDS011;6175;50.956;11.064;2022-08-25T05:01:36;7.60;;;6.90;;
12224;SDS011;6175;50.956;11.064;2022-08-25T05:04:04;7.95;;;7.25;;
12224;SDS011;6175;50.956;11.064;2022-08-25T05:06:33;7.13;;;6.45;;
12224;SDS011;6175;50.956;11.064;2022-08-25T05:09:01;7.65;;;6.93;;
12224;SDS011;6175;50.956;11.064;2022-08-25T05:11:29;7.88;;;7.07;;
12224;SDS011;6175;50.956;11.064;2022-08-25T05:13:56;7.70;;;6.72;;
12224;SDS011;6175;50.956;11.064;2022-08-25T05:16:26;6.75;;;6.10;;
12224;SDS011;6175;50.956;11.064;2022-08-25T05:18:54;6.60;;;6.07;;
12224;SDS011;6175;50.956;11.064;2022-08-25T05:21:23;6.90;;;6.30;;
12224;SDS011;6175;50.956;11.064;2022-08-25T05:23:53;7.22;;;6.57;;
12224;SDS011;6175;50.956;11.064;2022-08-25T05:26:23;7.18;;;6.63;;
12224;SDS011;6175;50.956;11.064;2022-08-25T05:28:52;8.52;;;7.70;;
12224;SDS011;6175;50.956;11.064;2022-08-25T05:31:21;8.80;;;8.02;;
12224;SDS011;6175;50.956;11.064;2022-08-25T05:33:50;10.18;;;7.20;;
12224;SDS011;6175;50.956;11.064;2022-08-25T05:36:18;7.65;;;6.90;;
12224;SDS011;6175;50.956;11.064;2022-08-25T05:38:47;9.10;;;8.05;;
12224;SDS011;6175;50.956;11.064;2022-08-25T05:41:15;7.50;;;6.82;;
12224;SDS011;6175;50.956;11.064;2022-08-25T05:43:44;7.07;;;6.47;;
12224;SDS011;6175;50.956;11.064;2022-08-25T05:46:12;7.97;;;7.18;;
12224;SDS011;6175;50.956;11.064;2022-08-25T05:48:39;7.65;;;6.85;;
12224;SDS011;6175;50.956;11.064;2022-08-25T05:51:09;7.85;;;6.97;;
12224;SDS011;6175;50.956;11.064;2022-08-25T05:53:36;6.80;;;6.20;;
12224;SDS011;6175;50.956;11.064;2022-08-25T05:56:05;7.22;;;6.63;;
12224;SDS011;6175;50.956;11.064;2022-08-25T05:58:32;7.78;;;7.07;;
12224;SDS011;6175;50.956;11.064;2022-08-25T06:01:00;8.10;;;7.30;;
12224;SDS011;6175;50.956;11.064;2022-08-25T06:03:47;8.05;;;7.22;;
12224;SDS011;6175;50.956;11.064;2022-08-25T06:06:14;7.95;;;7.05;;
12224;SDS011;6175;50.956;11.064;2022-08-25T06:08:41;7.50;;;6.75;;
12224;SDS011;6175;50.956;11.064;2022-08-25T06:11:09;9.05;;;8.02;;
12224;SDS011;6175;50.956;11.064;2022-08-25T06:13:36;8.30;;;7.50;;
12224;SDS011;6175;50.956;11.064;2022-08-25T06:16:04;8.13;;;7.32;;
12224;SDS011;6175;50.956;11.064;2022-08-25T06:18:31;8.10;;;7.30;;
12224;SDS011;6175;50.956;11.064;2022-08-25T06:20:58;8.27;;;7.47;;
12224;SDS011;6175;50.956;11.064;2022-08-25T06:23:26;9.85;;;8.88;;
12224;SDS011;6175;50.956;11.064;2022-08-25T06:25:53;9.48;;;8.43;;
12224;SDS011;6175;50.956;11.064;2022-08-25T06:28:20;11.60;;;10.35;;
12224;SDS011;6175;50.956;11.064;2022-08-25T06:30:47;9.82;;;8.82;;
12224;SDS011;6175;50.956;11.064;2022-08-25T06:33:14;8.98;;;8.10;;
12224;SDS011;6175;50.956;11.064;2022-08-25T06:35:42;7.97;;;7.03;;
12224;SDS011;6175;50.956;11.064;2022-08-25T06:38:10;10.77;;;9.10;;
12224;SDS011;6175;50.956;11.064;2022-08-25T06:40:39;14.90;;;10.65;;
12224;SDS011;6175;50.956;11.064;2022-08-25T06:43:05;10.02;;;8.93;;
12224;SDS011;6175;50.956;11.064;2022-08-25T06:45:33;11.35;;;10.02;;
12224;SDS011;6175;50.956;11.064;2022-08-25T06:48:00;11.75;;;10.45;;
12224;SDS011;6175;50.956;11.064;2022-08-25T06:50:28;10.73;;;9.55;;
12224;SDS011;6175;50.956;11.064;2022-08-25T06:52:55;10.90;;;9.80;;
12224;SDS011;6175;50.956;11.064;2022-08-25T06:55:23;10.25;;;9.25;;
12224;SDS011;6175;50.956;11.064;2022-08-25T06:57:52;8.82;;;8.00;;
12224;SDS011;6175;50.956;11.064;2022-08-25T07:00:19;10.63;;;8.93;;
12224;SDS011;6175;50.956;11.064;2022-08-25T07:02:46;12.68;;;10.23;;
12224;SDS011;6175;50.956;11.064;2022-08-25T07:05:14;9.43;;;8.15;;
12224;SDS011;6175;50.956;11.064;2022-08-25T07:07:41;11.75;;;9.43;;
12224;SDS011;6175;50.956;11.064;2022-08-25T07:10:10;12.98;;;9.25;;
12224;SDS011;6175;50.956;11.064;2022-08-25T07:12:37;10.52;;;9.48;;
12224;SDS011;6175;50.956;11.064;2022-08-25T07:15:07;10.30;;;9.23;;
12224;SDS011;6175;50.956;11.064;2022-08-25T07:17:35;10.75;;;9.45;;
12224;SDS011;6175;50.956;11.064;2022-08-25T07:20:02;15.40;;;13.25;;
12224;SDS011;6175;50.956;11.064;2022-08-25T07:22:29;10.35;;;9.32;;
12224;SDS011;6175;50.956;11.064;2022-08-25T07:24:57;11.00;;;9.98;;
12224;SDS011;6175;50.956;11.064;2022-08-25T07:27:24;12.65;;;10.43;;
12224;SDS011;6175;50.956;11.064;2022-08-25T07:29:51;11.70;;;10.48;;
12224;SDS011;6175;50.956;11.064;2022-08-25T07:32:19;11.40;;;9.88;;
12224;SDS011;6175;50.956;11.064;2022-08-25T07:34:46;9.50;;;8.50;;
12224;SDS011;6175;50.956;11.064;2022-08-25T07:37:30;12.52;;;10.45;;
12224;SDS011;6175;50.956;11.064;2022-08-25T07:40:00;16.67;;;12.20;;
12224;SDS011;6175;50.956;11.064;2022-08-25T07:42:27;15.90;;;11.63;;
12224;SDS011;6175;50.956;11.064;2022-08-25T07:44:54;13.98;;;12.18;;
12224;SDS011;6175;50.956;11.064;2022-08-25T07:47:23;13.68;;;12.27;;
12224;SDS011;6175;50.956;11.064;2022-08-25T07:49:50;11.32;;;9.40;;
12224;SDS011;6175;50.956;11.064;2022-08-25T07:52:17;15.02;;;11.35;;
12224;SDS011;6175;50.956;11.064;2022-08-25T07:54:44;12.07;;;10.82;;
12224;SDS011;6175;50.956;11.064;2022-08-25T07:57:11;14.18;;;11.27;;
12224;SDS011;6175;50.956;11.064;2022-08-25T07:59:38;13.25;;;11.70;;
12224;SDS011;6175;50.956;11.064;2022-08-25T08:02:06;13.68;;;12.27;;
12224;SDS011;6175;50.956;11.064;2022-08-25T08:04:36;10.00;;;9.00;;
12224;SDS011;6175;50.956;11.064;2022-08-25T08:07:03;13.50;;;10.38;;
12224;SDS011;6175;50.956;11.064;2022-08-25T08:09:30;13.20;;;10.80;;
12224;SDS011;6175;50.956;11.064;2022-08-25T08:11:57;12.15;;;10.88;;
12224;SDS011;6175;50.956;11.064;2022-08-25T08:14:24;13.30;;;11.88;;
12224;SDS011;6175;50.956;11.064;2022-08-25T08:16:51;13.88;;;12.48;;
12224;SDS011;6175;50.956;11.064;2022-08-25T08:19:18;14.15;;;12.40;;
12224;SDS011;6175;50.956;11.064;2022-08-25T08:21:47;13.55;;;12.02;;
12224;SDS011;6175;50.956;11.064;2022-08-25T08:24:14;15.57;;;13.45;;
12224;SDS011;6175;50.956;11.064;2022-08-25T08:26:42;16.98;;;13.00;;
12224;SDS011;6175;50.956;11.064;2022-08-25T08:29:08;12.65;;;11.30;;
12224;SDS011;6175;50.956;11.064;2022-08-25T08:31:37;12.50;;;11.23;;
12224;SDS011;6175;50.956;11.064;2022-08-25T08:34:04;12.75;;;11.40;;
12224;SDS011;6175;50.956;11.064;2022-08-25T08:36:31;12.82;;;11.50;;
12224;SDS011;6175;50.956;11.064;2022-08-25T08:39:00;14.00;;;12.52;;
12224;SDS011;6175;50.956;11.064;2022-08-25T08:41:41;11.90;;;10.73;;
12224;SDS011;6175;50.956;11.064;2022-08-25T08:44:53;13.50;;;10.98;;
12224;SDS011;6175;50.956;11.064;2022-08-25T08:47:47;12.93;;;11.63;;
12224;SDS011;6175;50.956;11.064;2022-08-25T08:50:24;12.43;;;11.15;;
12224;SDS011;6175;50.956;11.064;2022-08-25T08:52:58;12.75;;;11.50;;
12224;SDS011;6175;50.956;11.064;2022-08-25T08:55:32;12.77;;;10.98;;
12224;SDS011;6175;50.956;11.064;2022-08-25T08:58:04;12.00;;;10.82;;
12224;SDS011;6175;50.956;11.064;2022-08-25T09:00:36;11.80;;;10.65;;
12224;SDS011;6175;50.956;11.064;2022-08-25T09:03:07;11.75;;;10.40;;
12224;SDS011;6175;50.956;11.064;2022-08-25T09:05:39;11.23;;;9.88;;
12224;SDS011;6175;50.956;11.064;2022-08-25T09:08:11;14.50;;;10.88;;
12224;SDS011;6175;50.956;11.064;2022-08-25T09:10:44;10.43;;;9.30;;
12224;SDS011;6175;50.956;11.064;2022-08-25T09:13:23;10.80;;;9.70;;
12224;SDS011;6175;50.956;11.064;2022-08-25T09:16:00;10.63;;;9.55;;
12224;SDS011;6175;50.956;11.064;2022-08-25T09:18:54;12.70;;;10.13;;
12224;SDS011;6175;50.956;11.064;2022-08-25T09:21:29;13.77;;;9.75;;
12224;SDS011;6175;50.956;11.064;2022-08-25T09:24:08;15.20;;;10.82;;
12224;SDS011;6175;50.956;11.064;2022-08-25T09:26:48;12.07;;;9.80;;
12224;SDS011;6175;50.956;11.064;2022-08-25T09:29:26;9.88;;;9.02;;
12224;SDS011;6175;50.956;11.064;2022-08-25T09:31:59;12.75;;;10.00;;
12224;SDS011;6175;50.956;11.064;2022-08-25T09:34:29;11.65;;;10.55;;
12224;SDS011;6175;50.956;11.064;2022-08-25T09:36:59;13.10;;;9.55;;
12224;SDS011;6175;50.956;11.064;2022-08-25T09:39:26;10.93;;;9.93;;
12224;SDS011;6175;50.956;11.064;2022-08-25T09:41:56;11.20;;;9.93;;
12224;SDS011;6175;50.956;11.064;2022-08-25T09:44:25;10.55;;;9.50;;
12224;SDS011;6175;50.956;11.064;2022-08-25T09:46:58;11.65;;;9.50;;
12224;SDS011;6175;50.956;11.064;2022-08-25T09:49:35;12.02;;;10.35;;
12224;SDS011;6175;50.956;11.064;2022-08-25T09:55:12;10.20;;;9.20;;
12224;SDS011;6175;50.956;11.064;2022-08-25T09:57:51;10.50;;;9.30;;
12224;SDS011;6175;50.956;11.064;2022-08-25T10:00:22;12.73;;;9.63;;
12224;SDS011;6175;50.956;11.064;2022-08-25T10:03:02;10.20;;;8.93;;
12224;SDS011;6175;50.956;11.064;2022-08-25T10:05:33;13.43;;;10.55;;
12224;SDS011;6175;50.956;11.064;2022-08-25T10:08:03;10.98;;;9.57;;
12224;SDS011;6175;50.956;11.064;2022-08-25T10:10:39;9.60;;;8.68;;
12224;SDS011;6175;50.956;11.064;2022-08-25T10:13:13;10.18;;;9.15;;
12224;SDS011;6175;50.956;11.064;2022-08-25T10:15:43;9.65;;;8.65;;
12224;SDS011;6175;50.956;11.064;2022-08-25T10:18:21;10.20;;;9.00;;
12224;SDS011;6175;50.956;11.064;2022-08-25T10:23:45;10.45;;;9.27;;
12224;SDS011;6175;50.956;11.064;2022-08-25T10:26:18;10.50;;;8.82;;
12224;SDS011;6175;50.956;11.064;2022-08-25T10:28:56;9.52;;;8.52;;
12224;SDS011;6175;50.956;11.064;2022-08-25T10:31:36;10.32;;;8.40;;
12224;SDS011;6175;50.956;11.064;2022-08-25T10:34:17;9.35;;;8.48;;
12224;SDS011;6175;50.956;11.064;2022-08-25T10:36:52;10.30;;;8.73;;
12224;SDS011;6175;50.956;11.064;2022-08-25T10:39:32;9.48;;;8.57;;
12224;SDS011;6175;50.956;11.064;2022-08-25T10:42:10;9.60;;;8.57;;
12224;SDS011;6175;50.956;11.064;2022-08-25T10:45:01;10.82;;;8.70;;
12224;SDS011;6175;50.956;11.064;2022-08-25T10:47:58;8.85;;;8.05;;
12224;SDS011;6175;50.956;11.064;2022-08-25T10:50:47;8.93;;;8.02;;
12224;SDS011;6175;50.956;11.064;2022-08-25T10:53:24;8.77;;;7.97;;
12224;SDS011;6175;50.956;11.064;2022-08-25T10:55:59;10.05;;;8.93;;
12224;SDS011;6175;50.956;11.064;2022-08-25T10:58:34;8.93;;;8.18;;
12224;SDS011;6175;50.956;11.064;2022-08-25T11:01:25;9.50;;;8.27;;
12224;SDS011;6175;50.956;11.064;2022-08-25T11:04:02;11.05;;;8.52;;
12224;SDS011;6175;50.956;11.064;2022-08-25T11:06:36;8.68;;;7.82;;
12224;SDS011;6175;50.956;11.064;2022-08-25T11:09:06;8.48;;;7.68;;
12224;SDS011;6175;50.956;11.064;2022-08-25T11:11:36;8.13;;;7.28;;
12224;SDS011;6175;50.956;11.064;2022-08-25T11:14:08;8.15;;;7.35;;
12224;SDS011;6175;50.956;11.064;2022-08-25T11:16:42;8.05;;;7.35;;
12224;SDS011;6175;50.956;11.064;2022-08-25T11:19:16;9.43;;;8.52;;
12224;SDS011;6175;50.956;11.064;2022-08-25T11:21:48;9.10;;;8.30;;
12224;SDS011;6175;50.956;11.064;2022-08-25T11:24:26;9.05;;;8.20;;
12224;SDS011;6175;50.956;11.064;2022-08-25T11:27:03;8.80;;;7.97;;
12224;SDS011;6175;50.956;11.064;2022-08-25T11:29:34;9.02;;;7.53;;
12224;SDS011;6175;50.956;11.064;2022-08-25T11:32:07;11.25;;;7.93;;
12224;SDS011;6175;50.956;11.064;2022-08-25T11:34:34;8.30;;;7.40;;
12224;SDS011;6175;50.956;11.064;2022-08-25T11:37:04;8.55;;;7.55;;
12224;SDS011;6175;50.956;11.064;2022-08-25T11:39:45;8.18;;;7.40;;
12224;SDS011;6175;50.956;11.064;2022-08-25T11:42:34;8.30;;;7.50;;
12224;SDS011;6175;50.956;11.064;2022-08-25T11:45:20;8.05;;;7.35;;
12224;SDS011;6175;50.956;11.064;2022-08-25T11:48:07;7.88;;;7.15;;
12224;SDS011;6175;50.956;11.064;2022-08-25T11:50:59;8.38;;;7.40;;
12224;SDS011;6175;50.956;11.064;2022-08-25T11:53:28;8.27;;;7.35;;
12224;SDS011;6175;50.956;11.064;2022-08-25T11:55:58;8.25;;;7.45;;
12224;SDS011;6175;50.956;11.064;2022-08-25T11:58:31;7.30;;;6.55;;
12224;SDS011;6175;50.956;11.064;2022-08-25T12:01:10;7.57;;;6.88;;
12224;SDS011;6175;50.956;11.064;2022-08-25T12:04:12;8.73;;;7.20;;
12224;SDS011;6175;50.956;11.064;2022-08-25T12:12:39;7.75;;;7.05;;
12224;SDS011;6175;50.956;11.064;2022-08-25T12:15:23;7.38;;;6.60;;
12224;SDS011;6175;50.956;11.064;2022-08-25T12:18:06;8.88;;;7.18;;
12224;SDS011;6175;50.956;11.064;2022-08-25T12:24:10;9.77;;;7.28;;
12224;SDS011;6175;50.956;11.064;2022-08-25T12:26:47;8.30;;;7.40;;
12224;SDS011;6175;50.956;11.064;2022-08-25T12:29:25;7.65;;;6.85;;
12224;SDS011;6175;50.956;11.064;2022-08-25T12:31:58;8.13;;;6.63;;
12224;SDS011;6175;50.956;11.064;2022-08-25T12:34:48;8.65;;;6.65;;
12224;SDS011;6175;50.956;11.064;2022-08-25T12:37:29;10.98;;;6.93;;
12224;SDS011;6175;50.956;11.064;2022-08-25T12:39:56;8.25;;;6.93;;
12224;SDS011;6175;50.956;11.064;2022-08-25T12:42:29;8.27;;;7.07;;
12224;SDS011;6175;50.956;11.064;2022-08-25T12:45:07;9.00;;;6.53;;
12224;SDS011;6175;50.956;11.064;2022-08-25T12:47:57;7.50;;;6.80;;
12224;SDS011;6175;50.956;11.064;2022-08-25T12:51:02;9.10;;;6.82;;
12224;SDS011;6175;50.956;11.064;2022-08-25T12:53:33;8.43;;;6.45;;
12224;SDS011;6175;50.956;11.064;2022-08-25T12:56:05;6.97;;;6.30;;
12224;SDS011;6175;50.956;11.064;2022-08-25T12:58:36;6.57;;;5.97;;
12224;SDS011;6175;50.956;11.064;2022-08-25T13:01:16;11.05;;;6.88;;
12224;SDS011;6175;50.956;11.064;2022-08-25T13:03:53;8.80;;;6.68;;
12224;SDS011;6175;50.956;11.064;2022-08-25T13:06:58;8.93;;;6.85;;
12224;SDS011;6175;50.956;11.064;2022-08-25T13:09:51;7.28;;;6.57;;
12224;SDS011;6175;50.956;11.064;2022-08-25T13:12:36;7.25;;;6.55;;
12224;SDS011;6175;50.956;11.064;2022-08-25T13:15:10;7.63;;;5.97;;
12224;SDS011;6175;50.956;11.064;2022-08-25T13:17:40;7.45;;;6.50;;
12224;SDS011;6175;50.956;11.064;2022-08-25T13:20:10;9.15;;;6.30;;
12224;SDS011;6175;50.956;11.064;2022-08-25T13:22:46;6.65;;;5.93;;
12224;SDS011;6175;50.956;11.064;2022-08-25T13:25:17;7.45;;;6.38;;
12224;SDS011;6175;50.956;11.064;2022-08-25T13:27:49;6.90;;;6.20;;
12224;SDS011;6175;50.956;11.064;2022-08-25T13:30:21;7.13;;;5.82;;
12224;SDS011;6175;50.956;11.064;2022-08-25T13:32:50;7.75;;;6.45;;
12224;SDS011;6175;50.956;11.064;2022-08-25T13:35:18;9.60;;;5.75;;
12224;SDS011;6175;50.956;11.064;2022-08-25T13:37:47;6.60;;;5.45;;
12224;SDS011;6175;50.956;11.064;2022-08-25T13:40:14;6.40;;;5.40;;
12224;SDS011;6175;50.956;11.064;2022-08-25T13:42:52;6.22;;;5.63;;
12224;SDS011;6175;50.956;11.064;2022-08-25T13:45:22;7.13;;;6.00;;
12224;SDS011;6175;50.956;11.064;2022-08-25T13:47:50;6.20;;;5.60;;
12224;SDS011;6175;50.956;11.064;2022-08-25T13:50:30;8.10;;;5.75;;
12224;SDS011;6175;50.956;11.064;2022-08-25T13:52:59;7.07;;;5.43;;
12224;SDS011;6175;50.956;11.064;2022-08-25T13:55:32;7.50;;;5.70;;
12224;SDS011;6175;50.956;11.064;2022-08-25T13:58:01;5.57;;;5.07;;
12224;SDS011;6175;50.956;11.064;2022-08-25T14:00:30;7.50;;;6.07;;
12224;SDS011;6175;50.956;11.064;2022-08-25T14:03:00;6.10;;;5.57;;
12224;SDS011;6175;50.956;11.064;2022-08-25T14:05:33;5.80;;;5.20;;
12224;SDS011;6175;50.956;11.064;2022-08-25T14:08:03;6.35;;;5.82;;
12224;SDS011;6175;50.956;11.064;2022-08-25T14:10:36;6.20;;;5.60;;
12224;SDS011;6175;50.956;11.064;2022-08-25T14:13:06;7.40;;;6.30;;
12224;SDS011;6175;50.956;11.064;2022-08-25T14:15:35;8.50;;;5.80;;
12224;SDS011;6175;50.956;11.064;2022-08-25T14:18:04;7.53;;;5.90;;
12224;SDS011;6175;50.956;11.064;2022-08-25T14:20:34;6.47;;;5.72;;
12224;SDS011;6175;50.956;11.064;2022-08-25T14:23:03;6.72;;;5.93;;
12224;SDS011;6175;50.956;11.064;2022-08-25T14:25:31;6.20;;;5.20;;
12224;SDS011;6175;50.956;11.064;2022-08-25T14:28:01;5.95;;;5.45;;
12224;SDS011;6175;50.956;11.064;2022-08-25T14:30:29;7.80;;;5.45;;
12224;SDS011;6175;50.956;11.064;2022-08-25T14:32:57;6.53;;;5.65;;
12224;SDS011;6175;50.956;11.064;2022-08-25T14:35:24;7.15;;;5.60;;
12224;SDS011;6175;50.956;11.064;2022-08-25T14:37:50;6.10;;;5.60;;
12224;SDS011;6175;50.956;11.064;2022-08-25T14:40:18;5.72;;;5.32;;
12224;SDS011;6175;50.956;11.064;2022-08-25T14:42:46;6.57;;;5.78;;
12224;SDS011;6175;50.956;11.064;2022-08-25T14:45:15;7.85;;;5.40;;
12224;SDS011;6175;50.956;11.064;2022-08-25T14:47:43;7.45;;;5.68;;
12224;SDS011;6175;50.956;11.064;2022-08-25T14:50:11;6.28;;;5.65;;
12224;SDS011;6175;50.956;11.064;2022-08-25T14:52:40;6.03;;;5.45;;
12224;SDS011;6175;50.956;11.064;2022-08-25T14:55:08;6.15;;;5.65;;
12224;SDS011;6175;50.956;11.064;2022-08-25T14:57:36;6.03;;;5.53;;
12224;SDS011;6175;50.956;11.064;2022-08-25T15:00:04;5.50;;;5.00;;
12224;SDS011;6175;50.956;11.064;2022-08-25T15:02:33;5.93;;;5.43;;
12224;SDS011;6175;50.956;11.064;2022-08-25T15:05:04;6.15;;;5.55;;
12224;SDS011;6175;50.956;11.064;2022-08-25T15:07:32;6.68;;;5.60;;
12224;SDS011;6175;50.956;11.064;2022-08-25T15:10:18;6.20;;;5.60;;
12224;SDS011;6175;50.956;11.064;2022-08-25T15:12:45;6.65;;;6.05;;
12224;SDS011;6175;50.956;11.064;2022-08-25T15:15:14;6.50;;;5.90;;
12224;SDS011;6175;50.956;11.064;2022-08-25T15:17:42;5.88;;;5.38;;
12224;SDS011;6175;50.956;11.064;2022-08-25T15:20:11;6.13;;;5.38;;
12224;SDS011;6175;50.956;11.064;2022-08-25T15:22:38;5.95;;;5.45;;